Strawberry Point, California
Current Conditions -  °F | °C
As of 3:35 PM on Saturday 22 Nov 2014 (Local Time) from KDVO Reporting Station
Clear Clear  
Wind Chill: 66°   Ceiling: Unl
Heat Index: 66°   Visibility: NA
Dew Point: 54°   Wind: 13mph
Humidity: 64%   Direction: 280°W
Pressure: 30.13"   Gusts: 18mph
Location:  37.8835°N, 122.554°W
Report Text: KDVO 222335Z AUTO 28011G16KT CLR 19/12 A3013 RMK AO2
Loading
Personal Weather Stations






























Interactive Weather Map New forecast layout! Learn more

10-Day Weather Forecast

Advertisements
Track Severe Weather on mobile